• Join FlightAware (Why Join?)
  • Login
  • US Flag 
10:22PM EST


 

Airport Tracker/Info


-or-


 

Live Flight TrackerFlight Track Log ✈ ASQ5145 ✈ 24-Apr-2013 ✈ KATL - KTUL

Flight Track Log - Related Links

Times and Time Zones

All times are in EDT time to prevent confusion due to time zone crossing. See the ASQ5145 flight status page for this flight to view local times or setup timezone preferences in your user account.

Time Position Orientation Groundspeed Altitude Reporting Facility
EDT Latitude Longitude Course Direction KTS MPH feet Rate Location/Type
01:54PM 33.6500 -84.4667 285° West 160 184 2,700  Level Atlanta TRACON
01:56PM 33.6833 -84.6167 285° West 250 288 7,200 2,220 Climbing Atlanta TRACON
01:57PM 33.6983 -84.7556 277° West 259 298 10,500 1,800 Climbing Atlanta Center
01:58PM 33.7144 -84.8581 281° West 293 337 11,900 1,680 Climbing Atlanta Center
01:59PM 33.7303 -84.9681 280° West 326 375 13,900 1,980 Climbing Atlanta Center
02:00PM 33.7481 -85.0756 281° West 337 388 15,900 1,920 Climbing Atlanta Center
02:01PM 33.7617 -85.1908 278° West 342 394 17,800 1,620 Climbing Atlanta Center
02:02PM 33.7836 -85.3083 283° West 356 410 19,200 1,440 Climbing Atlanta Center
02:03PM 33.8011 -85.4239 280° West 356 410 20,700 1,440 Climbing Atlanta Center
02:04PM 33.8208 -85.5317 282° West 361 415 22,100 1,500 Climbing Atlanta Center
02:05PM 33.8400 -85.6494 281° West 356 410 23,800 1,500 Climbing Atlanta Center
02:06PM 33.8761 -85.7603 291° West 356 410 25,100 1,080 Climbing Atlanta Center
02:07PM 33.9081 -85.8658 290° West 361 415 26,000 900 Climbing Atlanta Center
02:08PM 33.9458 -85.9844 291° West 361 415 26,900 840 Climbing Atlanta Center
02:09PM 33.9836 -86.1031 291° West 373 429 27,700 780 Climbing Atlanta Center
02:10PM 34.0189 -86.2317 288° West 384 442 28,500 780 Climbing Atlanta Center
02:11PM 34.0542 -86.3531 289° West 390 449 29,300 840 Climbing Atlanta Center
02:12PM 34.0894 -86.4794 289° West 390 449 30,200 1,080 Climbing Atlanta Center
02:13PM 34.1244 -86.6008 289° West 395 455 31,500 1,260 Climbing Atlanta Center
02:14PM 34.1431 -86.6731 287° West 389 448 32,100 1,080 Climbing Memphis Center
02:15PM 34.1778 -86.7944 289° West 384 442 33,100 900 Climbing Memphis Center
02:16PM 34.2083 -86.9114 288° West 393 452 34,000 420 Climbing Memphis Center
02:17PM 34.2406 -87.0256 289° West 384 442 34,000  Level Memphis Center
02:18PM 34.2753 -87.1550 288° West 390 449 34,000  Level Memphis Center
02:19PM 34.3144 -87.2969 289° West 399 459 34,000  Level Memphis Center
02:20PM 34.3508 -87.4239 289° West 399 459 34,000  Level Memphis Center
02:21PM 34.3850 -87.5533 288° West 409 471 34,000  Level Memphis Center
02:22PM 34.4233 -87.6781 290° West 402 463 34,000  Level Memphis Center
02:23PM 34.4533 -87.8081 286° West 395 455 34,000  Level Memphis Center
02:24PM 34.4892 -87.9331 289° West 395 455 34,000  Level Memphis Center
02:25PM 34.5228 -88.0581 288° West 400 460 34,000  Level Memphis Center
02:26PM 34.5500 -88.1708 286° West 393 452 34,000  Level Memphis Center
02:27PM 34.5856 -88.3061 288° West 398 458 34,000  Level Memphis Center
02:28PM 34.6189 -88.4292 288° West 398 458 34,000  Level Memphis Center
02:29PM 34.6519 -88.5494 289° West 387 445 34,000  Level Memphis Center
02:30PM 34.6850 -88.6725 288° West 382 440 34,000  Level Memphis Center
02:31PM 34.7158 -88.7983 287° West 382 440 34,000  Level Memphis Center
02:32PM 34.7486 -88.9239 288° West 381 438 34,000  Level Memphis Center
02:33PM 34.7814 -89.0575 287° West 381 438 34,000  Level Memphis Center
02:34PM 34.8161 -89.1833 289° West 381 438 34,000  Level Memphis Center
02:35PM 34.8464 -89.3069 287° West 381 438 34,000  Level Memphis Center
02:36PM 34.8786 -89.4306 288° West 381 438 34,000  Level Memphis Center
02:37PM 34.9108 -89.5519 288° West 376 433 34,000  Level Memphis Center
02:38PM 34.9406 -89.6528 290° West 381 438 34,000  Level Memphis Center
02:39PM 34.9811 -89.8097 288° West 400 460 34,000  Level Memphis Center
02:40PM 35.0086 -89.9386 285° West 405 466 34,000  Level Memphis Center
02:41PM 35.0425 -90.0603 289° West 394 453 34,000  Level Memphis Center
02:42PM 35.0803 -90.1844 290° West 394 453 34,000  Level Memphis Center
02:43PM 35.1200 -90.3039 292° West 388 447 34,000  Level Memphis Center
02:44PM 35.1575 -90.4256 291° West 388 447 34,000  Level Memphis Center
02:45PM 35.1969 -90.5503 291° West 388 447 34,000  Level Memphis Center
02:46PM 35.2344 -90.6697 291° West 386 444 34,000  Level Memphis Center
02:47PM 35.2717 -90.7919 290° West 386 444 34,000  Level Memphis Center
02:48PM 35.3108 -90.9142 291° West 386 444 34,000  Level Memphis Center
02:49PM 35.3414 -91.0214 289° West 391 450 34,000  Level Memphis Center
02:50PM 35.3844 -91.1567 291° West 386 444 34,000  Level Memphis Center
02:51PM 35.4131 -91.2539 290° West 386 444 34,000  Level Memphis Center
02:52PM 35.4517 -91.3867 290° West 391 450 34,000  Level Memphis Center
02:53PM 35.4942 -91.5172 292° West 380 437 34,000  Level Memphis Center
02:54PM 35.5286 -91.6378 289° West 380 437 34,000  Level Memphis Center
02:55PM 35.5669 -91.7583 291° West 374 430 34,000  Level Memphis Center
02:56PM 35.6011 -91.8764 290° West 374 430 34,000  Level Memphis Center
02:57PM 35.6369 -91.9944 291° West 369 425 34,000  Level Memphis Center
02:58PM 35.6708 -92.1128 289° West 369 425 34,000  Level Memphis Center
02:59PM 35.7067 -92.2311 290° West 369 425 34,000  Level Memphis Center
03:00PM 35.7425 -92.3519 290° West 369 425 34,000  Level Memphis Center
03:01PM 35.7758 -92.4681 290° West 369 425 34,000  Level Memphis Center
03:02PM 35.8114 -92.5842 291° West 369 425 34,000  Level Memphis Center
03:03PM 35.8447 -92.7028 289° West 369 425 34,000  Level Memphis Center
03:04PM 35.8781 -92.8189 290° West 369 425 34,000  Level Memphis Center
03:05PM 35.9131 -92.9353 290° West 369 425 34,000  Level Memphis Center
03:06PM 35.9442 -93.0439 290° West 369 425 34,000  Level Memphis Center
03:07PM 35.9769 -93.1606 289° West 362 417 34,000  Level Memphis Center
03:08PM 36.0097 -93.2772 289° West 362 417 34,000  Level Memphis Center
03:09PM 36.0425 -93.3939 289° West 367 422 34,000  Level Memphis Center
03:10PM 36.0769 -93.5131 290° West 367 422 34,000  Level Memphis Center
03:11PM 36.1075 -93.6275 288° West 367 422 34,000  Level Memphis Center
03:12PM 36.1397 -93.7444 289° West 362 417 34,000  Level Memphis Center
03:13PM 36.1742 -93.8614 290° West 362 417 34,000 -600 Level Memphis Center
03:14PM 36.2019 -93.9808 286° West 367 422 32,900 -1,380 Descending Memphis Center
03:15PM 36.2358 -94.1008 289° West 367 422 31,300 -1,560 Descending Memphis Center
03:16PM 36.2406 -94.2219 273° West 361 415 29,800 -1,980 Descending Memphis Center
03:17PM 36.2389 -94.3428 269° West 351 404 27,400 -2,700 Descending Memphis Center
03:18PM 36.2350 -94.4611 268° West 351 404 24,400 -3,000 Descending Memphis Center
03:19PM 36.2333 -94.5742 269° West 345 397 21,400 -3,000 Descending Memphis Center
03:20PM 36.2231 -94.6894 264° West 345 397 18,400 -2,880 Descending Memphis Center
03:20PM 36.2078 -94.7506 253° West 330 380 17,000 -2,820 Descending Kansas City Center
03:21PM 36.1772 -94.8561 250° West 326 375 14,100 -2,820 Descending Kansas City Center
03:22PM 36.1800 -94.9650 272° West 321 369 11,300 -2,040 Descending Kansas City Center
03:23PM 36.1839 -95.0775 272° West 324 373 10,000 -960 Descending Kansas City Center
03:24PM 36.1836 -95.1192 270° West 318 366 10,000 -600 Level Kansas City Center
03:24PM 36.1861 -95.1728 273° West 289 333 9,400 -1,320 Descending Kansas City Center
03:25PM 36.1875 -95.2067 273° West 245 282 8,700 -1,620 Descending Kansas City Center
03:26PM 36.1881 -95.2594 271° West 259 298 7,700 -1,500 Descending Kansas City Center
03:27PM 36.1894 -95.3486 271° West 256 295 6,200 -1,380 Descending Kansas City Center
03:28PM 36.1914 -95.4600 271° West 266 306 4,800 -1,080 Descending Kansas City Center
03:29PM 36.1936 -95.5269 272° West 255 293 4,000 -1,020 Descending Kansas City Center
03:30PM 36.1983 -95.6292 273° West 248 285 2,800 -720 Descending Kansas City Center
03:31PM 36.1958 -95.7050 268° West 234 269 2,600 -360 Descending Kansas City Center
03:32PM 36.1958 -95.7711 270° West 211 243 2,100 -540 Descending Kansas City Center
03:33PM 36.1953 -95.8217 269° West 176 203 1,600 -540 Descending Kansas City Center